Flight Track Log - Related Links

Times and Time Zones

All times are in EDT time to prevent confusion due to time zone crossing. See the PDT4166 flight status page for this flight to view local times or setup timezone preferences in your user account.

Time Position Orientation Groundspeed Altitude Reporting Facility
EDT Latitude Longitude Course Direction KTS MPH feet Rate Location/Type
Mon 05:13:41 PM 39.8833 -75.2000 303° West 120 138 700  Level Philadelphia TRACON
Mon 05:14:29 PM 39.9167 -75.1833 21° North 154 177 1,700 1,333 Climbing Philadelphia TRACON
Mon 05:15:29 PM 39.9500 -75.1500 37° Northeast 169 194 3,100 1,450 Climbing Philadelphia TRACON
Mon 05:16:00 PM 40.0141 -75.3641 323° Northwest  Level FlightAware Approximate
Mon 05:16:29 PM 39.9833 -75.1667 339° North 164 189 4,600  Level Philadelphia TRACON
Mon 05:17:00 PM 40.0625 -75.4125 323° Northwest  Level FlightAware Approximate
Mon 05:17:35 PM 40.0167 -75.2167 311° West 168 193 6,100  Level Philadelphia TRACON
Mon 05:18:00 PM 40.1109 -75.4552 303° West  Level FlightAware Approximate
Mon 05:18:29 PM 40.0500 -75.2667 311° West 175 201 7,000  Level Philadelphia TRACON
Mon 05:19:35 PM 40.0833 -75.3167 311° West 179 206 8,200 755 Climbing Philadelphia TRACON
Mon 05:21:08 PM 40.1186 -75.3961 300° West 197 227 9,000 360 Climbing New York Center
Mon 05:22:05 PM 40.1619 -75.4642 310° West 207 238 9,100 51 Climbing New York Center
Mon 05:23:06 PM 40.2117 -75.5247 317° Northwest 232 267 9,100 694 Level New York Center
Mon 05:24:06 PM 40.2531 -75.5819 313° West 232 267 10,500 1,350 Climbing New York Center
Mon 05:25:06 PM 40.2867 -75.6250 316° Northwest 204 235 11,800 738 Climbing New York Center
Mon 05:26:08 PM 40.3153 -75.6869 301° West 194 223 12,000 100 Climbing New York Center
Mon 05:27:06 PM 40.3647 -75.7506 316° Northwest 216 249 12,000 254 Level New York Center
Mon 05:28:06 PM 40.4014 -75.8214 304° West 223 257 12,500 893 Climbing New York Center
Mon 05:29:07 PM 40.4350 -75.8647 316° Northwest 206 237 13,800 950 Climbing New York Center
Mon 05:30:06 PM 40.4883 -75.8822 346° North 189 217 14,400 605 Climbing New York Center
Mon 05:31:06 PM 40.5500 -75.9058 344° North 200 230 15,000 300 Climbing New York Center
Mon 05:32:06 PM 40.6092 -75.9350 339° North 219 252 15,000  Level New York Center
Mon 05:33:07 PM 40.6767 -75.9647 342° North 239 275 15,000  Level New York Center
Mon 05:34:06 PM 40.7419 -75.9917 343° North 246 283 15,000  Level New York Center
Mon 05:35:07 PM 40.8094 -76.0214 342° North 246 283 15,000  Level New York Center
Mon 05:36:07 PM 40.8708 -76.0508 340° North 246 283 15,000  Level New York Center
Mon 05:37:05 PM 40.9383 -76.0781 343° North 251 289 15,000  Level New York Center
Mon 05:38:06 PM 41.0117 -76.1139 340° North 246 283 15,000  Level New York Center
Mon 05:39:07 PM 41.0711 -76.1381 343° North 246 283 15,000  Level New York Center
Mon 05:40:06 PM 41.1406 -76.1628 345° North 246 283 15,000  Level New York Center
Mon 05:41:06 PM 41.2119 -76.1986 339° North 246 283 15,000  Level New York Center
Mon 05:42:07 PM 41.2828 -76.2017 358° North 246 283 15,000  Level New York Center
Mon 05:43:05 PM 41.3558 -76.1939 North 253 291 15,000  Level New York Center
Mon 05:44:06 PM 41.4225 -76.1964 358° North 259 298 15,000  Level New York Center
Mon 05:45:06 PM 41.4956 -76.1911 North 259 298 15,000  Level New York Center
Mon 05:46:07 PM 41.5775 -76.1783 North 259 298 15,000  Level New York Center
Mon 05:47:06 PM 41.6503 -76.1761 North 259 298 15,000  Level New York Center
Mon 05:48:07 PM 41.7233 -76.1736 North 259 298 15,000  Level New York Center
Mon 05:49:08 PM 41.7903 -76.1678 North 259 298 15,000 -102 Level New York Center
Mon 05:50:05 PM 41.8636 -76.1600 North 259 298 14,800 -508 Descending New York Center
Mon 05:51:06 PM 41.9511 -76.1586 North 271 312 14,000 -694 Descending New York Center
Mon 05:52:06 PM 42.0306 -76.1511 North 280 322 13,400 -595 Descending New York Center
Mon 05:53:07 PM 42.1017 -76.1431 North 286 329 12,800 -639 Descending New York Center
Mon 05:54:08 PM 42.1831 -76.1383 North 292 336 12,100 -712 Descending New York Center
Mon 05:55:05 PM 42.2647 -76.1256 North 292 336 11,400 -835 Descending New York Center
Mon 05:55:27 PM 42.3011 -76.1233 North 291 335 11,000 -369 Descending Boston Center
Mon 05:56:10 PM 42.3639 -76.1131 North 289 333 11,000  Level Boston Center
Mon 05:57:10 PM 42.4369 -76.1089 North 270 311 11,000  Level Boston Center
Mon 05:58:11 PM 42.5103 -76.0964 North 266 306 11,000  Level Boston Center
Mon 05:59:12 PM 42.5856 -76.0894 North 266 306 11,000 -298 Level Boston Center
Mon 06:00:12 PM 42.6603 -76.1053 351° North 277 319 10,400 -694 Descending Boston Center
Mon 06:01:13 PM 42.7344 -76.1294 347° North 285 328 9,600 -787 Descending Boston Center
Mon 06:02:14 PM 42.8081 -76.1733 336° Northwest 283 326 8,800 -1,041 Descending Boston Center
Mon 06:03:14 PM 42.8778 -76.2089 340° North 261 300 7,500 -1,438 Descending Boston Center
Mon 06:04:15 PM 42.9369 -76.2522 332° Northwest 206 237 5,900 -1,587 Descending Boston Center
Mon 06:05:15 PM 42.9897 -76.2894 333° Northwest 211 243 4,300 -1,636 Descending Boston Center
Mon 06:06:16 PM 43.0447 -76.3300 332° Northwest 236 272 2,600 -934 Descending Boston Center
Mon 06:07:17 PM 43.0869 -76.3156 14° North 179 206 2,400 -197 Descending Boston Center

Login

Don't have an account? Register now (free) for customized features, flight alerts, and more!